Liverpool, United Kingdom

10:58 AM GMT on January 30, 2015 (GMT +0000)
Liverpool | Change Station
CLOSE
Current Station
Airport
Location: Liverpool,
Elevation: 85 ft
Nearby Weather Stations

Elev 85 ft 53.33 °N, 2.85 °W | Updated 8 minutes ago

Scattered Clouds
Scattered Clouds
45 °F
Feels Like 37 °F
N
16
Wind Variable Wind from NW

Today
High -- | Low -- °F
--% Chance of Precip.
Yesterday
High -- | Low -- °F
Precip. -- in
7:59 AM 4:50 PM
Waxing Gibbous, 82% visible
Pressure 28.91 in
Visibility 6.2 miles
Clouds Few 1400 ft
Scattered Clouds 3000 ft
Windchill 37 °F
Dew Point 37 °F
Humidity 76%
Rainfall 0.00 in
Snow Depth Not available.
UV 1 out of 12
Pollen Not available.
Air Quality Not available.
Flu Activity Not available.
METAR EGGP 301050Z 31014KT 290V350 9999 FEW014 SCT030 07/03 Q0979

More Conditions Fewer Conditions

Pressure 28.91 in
Visibility 6.2 miles
Clouds Few 1400 ft
Scattered Clouds 3000 ft
Windchill 37 °F
Dew Point 37 °F
Humidity 76%
Rainfall 0.00 in
Snow Depth Not available.
UV 1 out of 12
Pollen Not available.
Air Quality Not available.
Flu Activity Not available.
METAR EGGP 301050Z 31014KT 290V350 9999 FEW014 SCT030 07/03 Q0979

More Conditions Fewer Conditions

10-Day Weather Forecast

Almanac

Astronomy

Jan. 30, 2015 Rise Set
Actual Time
Civil Twilight
Nautical Twilight
Astronomical Twilight
Moon
Length of Visible Light
Length of Day
Tomorrow will be .
, % of the Moon is Illuminated

Today's Extremes

Country Highs Country Lows

Community

WunderPhotos

Upload Photos

1,791,736 photos uploaded!

WunderBlogs® & News

Nearby

Air Quality

  Air Quality AQ Index Pollutant
Not available.

Snow Depth

Station Depth Elevation

Earthquake Activity

City Distance Mag. Time & Date
Minimum magnitude displayed is 2.5.

Coastal Water Temperatures

Place Temperature

Nearby Weather Stations